Shubenacadie, Canada
Current Conditions -  °F | °C
As of 7:00 AM on Friday 31 Oct 2014 (Local Time) from CYHZ Reporting Station
Few Clouds Few Clouds  
Wind Chill: 34°   Ceiling: Unl
Heat Index: 37°   Visibility: 15mi
Dew Point: 34°   Wind: 5mph
Humidity: 87%   Direction: 360°N
Pressure: 29.98"   Gusts: NA
Location:  45.08°N, 63.4°W
Report Text: CYHZ 311000Z 36004KT 15SM FEW030 03/01 A2998 RMK SC1 SLP157
Loading
Personal Weather Stations






























Interactive Weather Map
Tropical Storm Tracking
New forecast layout! Learn more

10-Day Weather Forecast

Advertisements
Track Severe Weather on mobile